Time;durP1;ratioP1;P1;durP2;ratioP2;P2;SDS_P1;SDS_P2;PMS_P1;PMS_P2;Temp;Humidity;BMP_temperature;BMP_pressure;BME280_temperature;BME280_humidity;BME280_pressure;Samples;Min_cycle;Max_cycle;Signal;HPM_P1;HPM_P2
2022/08/09 10:05:06;;;;;;;11.10;6.17;;;;;;;43.47;21.88;101110.38;1889277;76;22601;-81
2022/08/09 10:07:33;;;;;;;15.15;5.75;;;;;;;43.11;21.62;101120.52;1860139;77;20991;-80
2022/08/09 10:10:00;;;;;;;8.33;5.40;;;;;;;42.49;22.04;101113.06;1860403;77;21191;-81
2022/08/09 10:12:33;;;;;;;8.90;5.67;;;;;;;42.24;21.44;101111.23;1860129;77;21356;-81
2022/08/09 10:15:14;;;;;;;8.30;5.30;;;;;;;42.19;21.41;101113.28;1860378;77;20975;-81
2022/08/09 10:17:46;;;;;;;14.10;5.37;;;;;;;41.83;21.54;101110.45;1741758;82;21096;-81
2022/08/09 10:20:24;;;;;;;12.53;5.75;;;;;;;41.48;22.32;101099.89;1659822;86;21127;-81
2022/08/09 10:22:54;;;;;;;8.23;4.67;;;;;;;40.89;22.33;101101.59;1659528;86;21151;-80
2022/08/09 10:27:50;;;;;;;11.00;5.30;;;;;;;40.64;23.18;101099.81;1651035;86;21483;-80
2022/08/09 10:30:16;;;;;;;7.95;5.05;;;;;;;40.38;22.20;101101.87;1651380;86;21078;-80
2022/08/09 10:32:44;;;;;;;8.70;4.75;;;;;;;40.02;23.20;101109.30;1651558;86;21104;-80
2022/08/09 10:35:10;;;;;;;7.90;5.00;;;;;;;40.06;23.85;101100.70;1651293;86;21311;-80
2022/08/09 10:37:37;;;;;;;6.72;4.85;;;;;;;39.98;23.26;101101.57;1651433;86;21084;-80
2022/08/09 10:40:06;;;;;;;6.12;4.08;;;;;;;39.96;23.17;101104.05;1651504;86;21588;-80
2022/08/09 10:42:33;;;;;;;9.68;5.30;;;;;;;39.99;22.83;101097.50;1651390;86;21148;-80
2022/08/09 10:45:06;;;;;;;8.45;4.65;;;;;;;40.14;23.25;101096.41;1651177;86;21125;-79
2022/08/09 10:47:56;;;;;;;5.65;4.50;;;;;;;40.56;23.17;101096.25;1651323;86;21776;-80
2022/08/09 10:53:52;;;;;;;8.10;4.28;;;;;;;40.92;22.85;101089.36;1650990;86;21057;-80
2022/08/09 10:56:23;;;;;;;8.78;3.85;;;;;;;41.02;22.95;101087.57;1650976;86;21069;-79
2022/08/09 10:58:52;;;;;;;7.50;4.20;;;;;;;41.15;22.44;101086.11;1651711;86;21080;-80
2022/08/09 11:01:38;;;;;;;7.85;4.30;;;;;;;41.22;22.42;101086.49;1651403;86;21093;-80
2022/08/09 11:04:13;;;;;;;6.28;4.25;;;;;;;41.18;22.04;101078.75;1651086;86;21577;-81
2022/08/09 11:06:44;;;;;;;10.80;4.80;;;;;;;40.75;21.78;101081.70;1651232;86;21085;-80
2022/08/09 11:09:14;;;;;;;6.47;4.30;;;;;;;40.43;21.93;101081.37;1628999;86;21038;-80
2022/08/09 11:12:03;;;;;;;8.98;4.50;;;;;;;40.15;21.67;101081.03;1648392;86;21026;-80
2022/08/09 11:14:43;;;;;;;9.10;4.40;;;;;;;40.32;22.39;101074.03;1702765;84;21455;-80
2022/08/09 11:17:21;;;;;;;7.45;4.12;;;;;;;39.94;22.02;101072.64;1743060;81;21003;-80
2022/08/09 11:22:51;;;;;;;8.13;2.65;;;;;;;39.79;20.29;101075.13;1602325;89;21580;-80
2022/08/09 11:25:24;;;;;;;10.20;3.62;;;;;;;39.60;20.32;101078.31;1636576;86;21040;-80
2022/08/09 11:27:53;;;;;;;5.90;2.90;;;;;;;39.05;20.84;101069.02;1651275;86;21230;-80
2022/08/09 11:30:28;;;;;;;5.22;3.52;;;;;;;39.06;20.50;101064.35;1628807;86;21120;-80
2022/08/09 11:33:12;;;;;;;4.22;3.33;;;;;;;39.36;20.85;101063.72;1650848;86;21071;-80
2022/08/09 11:35:57;;;;;;;9.35;3.80;;;;;;;39.13;21.37;101064.77;1648270;86;21091;-80
2022/08/09 11:38:28;;;;;;;10.63;4.05;;;;;;;38.98;22.39;101068.61;1649147;86;21068;-79
2022/08/09 11:40:55;;;;;;;6.17;3.22;;;;;;;39.28;23.04;101059.50;1651229;86;21099;-80
2022/08/09 11:43:30;;;;;;;7.47;2.72;;;;;;;39.49;22.02;101065.15;1650830;86;21712;-80
2022/08/09 11:46:01;;;;;;;6.53;2.87;;;;;;;39.24;21.21;101059.61;1651108;86;21142;-80
2022/08/09 11:48:51;;;;;;;16.40;3.33;;;;;;;39.06;21.92;101057.30;1650922;86;21107;-80
2022/08/09 11:51:22;;;;;;;6.33;3.25;;;;;;;38.84;21.61;101055.66;1650543;86;21072;-80
2022/08/09 11:54:09;;;;;;;5.17;2.70;;;;;;;38.72;21.49;101052.17;1651095;86;21287;-80
2022/08/09 11:56:35;;;;;;;5.37;2.65;;;;;;;38.49;21.23;101054.59;1650878;86;21013;-80
2022/08/09 11:59:01;;;;;;;5.45;2.80;;;;;;;38.61;20.94;101051.66;1651198;86;21084;-79
2022/08/09 12:01:42;;;;;;;7.65;3.45;;;;;;;38.78;21.21;101049.61;1648438;85;20999;-79
2022/08/09 12:04:13;;;;;;;7.15;3.52;;;;;;;38.99;20.70;101049.03;1645496;87;21679;-80
2022/08/09 12:06:48;;;;;;;4.22;2.95;;;;;;;38.79;20.66;101042.73;1589851;90;21134;-80
2022/08/09 12:09:15;;;;;;;13.28;3.50;;;;;;;38.95;20.86;101042.72;1587773;90;21081;-79
2022/08/09 12:11:41;;;;;;;6.85;3.02;;;;;;;39.03;21.22;101039.88;1589990;90;21034;-79
2022/08/09 12:14:10;;;;;;;5.05;3.05;;;;;;;38.48;20.76;101041.75;1589836;90;21057;-79
2022/08/09 12:16:40;;;;;;;10.43;3.47;;;;;;;38.26;21.80;101038.65;1589732;90;21041;-79
2022/08/09 12:19:11;;;;;;;5.58;3.20;;;;;;;38.16;21.61;101043.95;1626287;84;21191;-79
2022/08/09 12:21:47;;;;;;;5.53;3.00;;;;;;;38.25;22.07;101040.52;1690000;84;21046;-80
2022/08/09 12:24:17;;;;;;;4.72;3.10;;;;;;;38.58;22.36;101036.44;1689575;84;21137;-79
2022/08/09 12:26:50;;;;;;;8.30;2.70;;;;;;;38.94;22.25;101030.47;1684502;83;21086;-79
2022/08/09 12:29:20;;;;;;;6.75;2.87;;;;;;;39.00;21.17;101032.28;1689642;84;21034;-79
2022/08/09 12:31:48;;;;;;;4.97;2.60;;;;;;;39.13;20.90;101028.73;1689972;84;21145;-80
2022/08/09 12:34:19;;;;;;;3.85;2.98;;;;;;;39.20;20.45;101031.33;1689741;84;21581;-80
2022/08/09 12:36:53;;;;;;;12.43;3.35;;;;;;;38.98;20.59;101020.69;1686525;84;21031;-80
2022/08/09 12:39:20;;;;;;;10.25;2.83;;;;;;;38.99;21.15;101023.66;1689863;84;21126;-78
2022/08/09 12:41:47;;;;;;;5.58;2.75;;;;;;;38.55;21.27;101025.27;1690113;84;21665;-79
2022/08/09 12:44:14;;;;;;;7.83;2.87;;;;;;;38.28;21.09;101026.95;1689955;84;21186;-79
2022/08/09 12:46:43;;;;;;;5.53;2.80;;;;;;;38.03;21.83;101021.94;1670718;81;21587;-82
2022/08/09 12:49:11;;;;;;;3.72;3.00;;;;;;;37.83;22.52;101027.02;1741876;81;21185;-81
2022/08/09 12:51:37;;;;;;;10.05;3.45;;;;;;;37.65;22.72;101028.02;1754594;81;21073;-81
2022/08/09 12:54:06;;;;;;;11.70;3.80;;;;;;;37.50;23.31;101028.37;1725688;81;21051;-80
2022/08/09 12:56:36;;;;;;;13.75;3.65;;;;;;;37.41;22.63;101028.11;1729575;81;21937;-80
2022/08/09 12:59:16;;;;;;;32.33;15.75;;;;;;;37.40;21.95;101022.32;1733251;81;21059;-80
2022/08/09 13:01:46;;;;;;;13.60;6.87;;;;;;;37.38;21.79;101020.55;1612973;87;21597;-80
2022/08/09 13:04:16;;;;;;;9.30;4.58;;;;;;;37.57;22.50;101019.59;1641492;84;21073;-80
2022/08/09 13:06:47;;;;;;;6.60;4.45;;;;;;;37.73;22.56;101015.38;1705324;82;21076;-86
2022/08/09 13:09:23;;;;;;;8.13;4.17;;;;;;;37.97;24.99;101009.00;1700457;83;21102;-87
2022/08/09 13:11:53;;;;;;;9.98;3.67;;;;;;;38.07;23.93;101011.40;1612340;87;21971;-86
2022/08/09 13:14:25;;;;;;;9.15;3.80;;;;;;;37.87;23.67;101010.04;1612275;87;21099;-84
2022/08/09 13:16:58;;;;;;;10.60;3.83;;;;;;;37.88;23.51;101008.17;1612535;87;21131;-84
2022/08/09 13:19:29;;;;;;;9.55;3.42;;;;;;;37.99;24.34;101002.95;1611407;88;21101;-86
2022/08/09 13:22:18;;;;;;;5.83;3.15;;;;;;;37.94;22.86;101004.25;1602445;89;21986;-88
2022/08/09 13:24:58;;;;;;;10.23;3.83;;;;;;;37.67;22.96;101006.66;1586824;88;21534;-83
2022/08/09 13:27:37;;;;;;;7.00;3.20;;;;;;;37.64;24.00;101006.75;1588372;88;21486;-87
2022/08/09 13:30:11;;;;;;;16.95;3.30;;;;;;;37.69;24.38;101005.63;1591661;89;21069;-87
2022/08/09 13:32:47;;;;;;;9.83;3.55;;;;;;;37.72;23.80;101002.55;1588459;89;21081;-89
2022/08/09 13:35:18;;;;;;;3.83;2.87;;;;;;;37.70;23.97;101000.78;1591604;89;21273;-89
2022/08/09 13:37:46;;;;;;;8.53;3.15;;;;;;;37.63;23.23;101003.16;1567125;91;21022;-88
2022/08/09 13:40:13;;;;;;;4.45;3.20;;;;;;;37.40;23.00;100998.42;1560414;90;21107;-84
2022/08/09 13:42:40;;;;;;;5.85;3.22;;;;;;;37.19;23.94;101001.09;1566174;90;21213;-85
2022/08/09 13:45:09;;;;;;;19.98;3.50;;;;;;;37.09;24.68;100999.89;1565535;90;21768;-86
2022/08/09 13:47:36;;;;;;;8.35;3.50;;;;;;;37.09;24.50;100999.28;1562062;90;21139;-85
2022/08/09 13:50:06;;;;;;;11.12;5.17;;;;;;;36.82;24.46;100994.56;1553162;90;21075;-85
2022/08/09 13:52:33;;;;;;;5.78;3.62;;;;;;;36.44;24.41;100987.66;1472770;96;21153;-85
2022/08/09 13:55:01;;;;;;;5.72;3.70;;;;;;;36.32;24.33;100991.88;1465849;96;21595;-86
2022/08/09 13:57:29;;;;;;;7.12;3.70;;;;;;;36.28;24.65;100989.75;1465797;97;21160;-86
2022/08/09 13:59:55;;;;;;;17.65;5.03;;;;;;;36.24;24.35;100988.42;1505639;95;21379;-86
2022/08/09 14:02:22;;;;;;;5.25;3.95;;;;;;;36.33;25.21;100992.87;1505580;95;21068;-86
2022/08/09 14:04:48;;;;;;;19.95;4.35;;;;;;;36.27;24.41;100989.55;1501153;94;21584;-86
2022/08/09 14:07:14;;;;;;;8.40;3.45;;;;;;;36.36;24.90;100982.19;1483440;95;21204;-86
2022/08/09 14:09:40;;;;;;;10.03;3.98;;;;;;;36.46;25.48;100986.01;1498297;93;21112;-87
2022/08/09 14:12:07;;;;;;;5.60;3.70;;;;;;;36.45;25.97;100982.24;1511419;94;21135;-85
2022/08/09 14:14:34;;;;;;;12.45;3.17;;;;;;;36.39;25.86;100984.75;1532767;92;21547;-85
2022/08/09 14:17:00;;;;;;;4.95;3.20;;;;;;;36.38;25.71;100985.95;1571977;90;22313;-86
2022/08/09 14:19:26;;;;;;;9.20;3.77;;;;;;;36.44;25.47;100985.64;1582008;90;21140;-86
2022/08/09 14:21:52;;;;;;;7.15;3.45;;;;;;;36.41;25.42;100985.70;1578840;90;21159;-86
2022/08/09 14:24:19;;;;;;;14.68;3.98;;;;;;;36.23;25.29;100983.22;1582146;90;21040;-86
2022/08/09 14:26:47;;;;;;;6.65;3.20;;;;;;;36.15;25.64;100983.36;1600152;88;21076;-86
